createdAt,value
2022-09-17T00:00:28.181Z,9.97
2022-09-17T00:03:34.055Z,9.05
2022-09-17T00:06:39.268Z,8.25
2022-09-17T00:09:44.477Z,8.93
2022-09-17T00:12:52.179Z,9.10
2022-09-17T00:15:57.454Z,8.87
2022-09-17T00:19:03.214Z,9.23
2022-09-17T00:22:08.273Z,7.82
2022-09-17T00:25:13.259Z,7.63
2022-09-17T00:28:21.169Z,8.35
2022-09-17T00:31:26.277Z,7.97
2022-09-17T00:34:31.362Z,7.82
2022-09-17T00:37:36.448Z,6.97
2022-09-17T00:40:42.279Z,6.32
2022-09-17T00:43:52.568Z,7.75
2022-09-17T00:46:59.060Z,6.18
2022-09-17T00:50:05.219Z,7.35
2022-09-17T00:53:12.905Z,7.43
2022-09-17T00:56:23.351Z,6.93
2022-09-17T00:59:31.567Z,6.82
2022-09-17T01:02:36.982Z,7.95
2022-09-17T01:05:47.348Z,6.47
2022-09-17T01:08:59.891Z,6.68
2022-09-17T01:12:14.906Z,7.95
2022-09-17T01:15:28.516Z,6.75
2022-09-17T01:18:42.241Z,6.65
2022-09-17T01:21:54.120Z,7.20
2022-09-17T01:25:09.394Z,6.47
2022-09-17T01:28:33.072Z,7.47
2022-09-17T01:31:45.486Z,7.03
2022-09-17T01:34:55.838Z,6.43
2022-09-17T01:38:03.905Z,6.60
2022-09-17T01:41:10.207Z,5.93
2022-09-17T01:44:17.895Z,6.10
2022-09-17T04:00:27.622Z,6.15
2022-09-17T04:03:32.749Z,5.78
2022-09-17T04:06:38.277Z,6.15
2022-09-17T04:09:43.396Z,5.80
2022-09-17T04:12:48.651Z,4.95
2022-09-17T04:15:56.434Z,5.28
2022-09-17T04:19:01.604Z,4.17
2022-09-17T04:22:06.704Z,4.70
2022-09-17T04:25:12.025Z,4.32
2022-09-17T04:28:17.101Z,4.47
2022-09-17T04:31:27.499Z,3.90
2022-09-17T04:34:33.377Z,3.90
2022-09-17T04:37:38.707Z,3.55
2022-09-17T04:40:45.054Z,3.97
2022-09-17T04:43:50.567Z,3.97
2022-09-17T04:46:58.385Z,4.18
2022-09-17T04:50:03.463Z,3.50
2022-09-17T04:53:08.969Z,3.97
2022-09-17T04:56:14.182Z,4.22
2022-09-17T04:59:19.314Z,4.25
2022-09-17T05:02:27.133Z,4.15
2022-09-17T05:05:32.281Z,4.35
2022-09-17T05:08:37.496Z,3.72
2022-09-17T05:11:42.474Z,3.88
2022-09-17T05:14:47.377Z,4.43
2022-09-17T05:17:55.165Z,2.80
2022-09-17T05:21:00.422Z,3.50
2022-09-17T05:24:05.771Z,3.00
2022-09-17T05:27:11.729Z,3.17
2022-09-17T05:30:17.113Z,2.90
2022-09-17T05:33:24.806Z,3.00
2022-09-17T05:36:29.915Z,2.88
2022-09-17T05:39:34.925Z,2.90
2022-09-17T05:42:40.108Z,3.45
2022-09-17T05:45:45.024Z,2.42
2022-09-17T05:48:53.019Z,2.72
2022-09-17T05:51:58.146Z,2.70
2022-09-17T05:55:03.632Z,2.85
2022-09-17T05:58:15.281Z,2.28
2022-09-17T06:01:20.365Z,2.78
2022-09-17T06:04:31.533Z,2.90
2022-09-17T06:07:39.833Z,2.50
2022-09-17T06:10:44.873Z,2.42
2022-09-17T06:13:53.517Z,2.55
2022-09-17T06:16:58.933Z,2.45
2022-09-17T06:20:07.555Z,2.47
2022-09-17T06:23:15.861Z,2.78
2022-09-17T06:29:25.900Z,3.00
2022-09-17T06:32:31.285Z,2.90
2022-09-17T06:35:38.953Z,3.15
2022-09-17T06:38:44.166Z,2.85
2022-09-17T06:41:49.284Z,3.17
2022-09-17T06:44:54.398Z,3.15
2022-09-17T06:47:59.449Z,2.60
2022-09-17T06:51:08.644Z,2.53
2022-09-17T06:54:13.801Z,3.47
2022-09-17T06:57:19.165Z,2.95
2022-09-17T07:00:24.292Z,2.17
2022-09-17T07:03:29.447Z,2.20
2022-09-17T07:06:37.001Z,2.35
2022-09-17T07:09:42.615Z,2.20
2022-09-17T07:12:49.934Z,2.40
2022-09-17T07:15:55.967Z,2.37
2022-09-17T07:19:00.938Z,2.22
2022-09-17T07:22:08.733Z,2.00
2022-09-17T07:25:14.141Z,2.28
2022-09-17T07:28:19.412Z,2.00
2022-09-17T07:31:24.634Z,3.92
2022-09-17T07:34:29.977Z,2.72
2022-09-17T07:37:37.787Z,2.08
2022-09-17T07:41:02.375Z,3.42
2022-09-17T07:44:08.125Z,2.28
2022-09-17T07:47:13.345Z,2.30
2022-09-17T07:50:18.603Z,2.60
2022-09-17T07:53:26.584Z,2.22
2022-09-17T07:56:31.766Z,2.50
2022-09-17T07:59:36.829Z,2.08
2022-09-17T08:02:42.204Z,2.20
2022-09-17T08:05:48.519Z,1.92
2022-09-17T08:08:56.085Z,2.17
2022-09-17T08:12:01.655Z,2.42
2022-09-17T08:15:07.028Z,2.72
2022-09-17T08:18:12.057Z,2.20
2022-09-17T08:21:18.396Z,2.55
2022-09-17T08:24:26.401Z,2.53
2022-09-17T08:27:32.869Z,2.50
2022-09-17T08:30:37.827Z,2.45
2022-09-17T08:33:43.588Z,2.10
2022-09-17T08:36:48.807Z,2.08
2022-09-17T08:39:56.767Z,2.10
2022-09-17T08:43:04.810Z,2.13
2022-09-17T08:46:12.757Z,2.40
2022-09-17T08:49:24.801Z,2.33
2022-09-17T08:52:54.408Z,1.70
2022-09-17T08:56:06.080Z,2.42
2022-09-17T08:59:21.842Z,2.30
2022-09-17T09:02:32.675Z,2.10
2022-09-17T09:05:43.655Z,1.73
2022-09-17T09:08:51.923Z,1.70
2022-09-17T09:12:03.650Z,2.03
2022-09-17T09:15:10.435Z,2.05
2022-09-17T09:18:19.088Z,1.60
2022-09-17T09:21:29.681Z,1.70
2022-09-17T09:24:41.522Z,1.70
2022-09-17T09:27:51.272Z,1.55
2022-09-17T09:31:01.107Z,1.48
2022-09-17T09:34:06.460Z,1.25
2022-09-17T09:37:15.432Z,1.23
2022-09-17T09:40:26.320Z,1.17
2022-09-17T09:43:59.843Z,1.40
2022-09-17T09:47:15.916Z,1.52
2022-09-17T09:50:38.402Z,1.50
2022-09-17T09:53:56.602Z,1.10
2022-09-17T09:57:04.259Z,1.38
2022-09-17T10:00:26.267Z,1.30
2022-09-17T10:03:35.031Z,1.20
2022-09-17T10:06:40.163Z,1.63
2022-09-17T10:09:48.975Z,1.38
2022-09-17T10:13:08.086Z,1.23
2022-09-17T10:16:19.943Z,1.15
2022-09-17T10:19:28.367Z,2.60
2022-09-17T10:22:34.748Z,1.20
2022-09-17T10:25:45.337Z,1.60
2022-09-17T10:28:52.925Z,1.25
2022-09-17T10:31:59.193Z,1.20
2022-09-17T10:35:08.469Z,1.23
2022-09-17T10:38:29.692Z,1.30
2022-09-17T10:41:34.750Z,1.67
2022-09-17T10:44:40.395Z,1.48
2022-09-17T10:47:46.250Z,1.63
2022-09-17T10:50:55.497Z,1.15
2022-09-17T10:54:05.010Z,1.98
2022-09-17T10:57:10.666Z,1.42
2022-09-17T11:00:18.449Z,1.40
2022-09-17T11:03:30.339Z,1.35
2022-09-17T11:06:54.397Z,1.45
2022-09-17T11:10:03.014Z,1.33
2022-09-17T11:13:16.035Z,1.52
2022-09-17T11:16:26.997Z,1.40
2022-09-17T11:19:40.739Z,1.35
2022-09-17T11:22:53.692Z,1.58
2022-09-17T11:26:01.367Z,1.77
2022-09-17T11:29:12.449Z,1.70
2022-09-17T11:32:25.030Z,1.42
2022-09-17T11:35:31.289Z,1.50
2022-09-17T11:38:43.530Z,1.65
2022-09-17T11:41:50.010Z,1.50
2022-09-17T11:44:57.075Z,1.55
2022-09-17T11:48:06.833Z,1.48
2022-09-17T11:51:19.134Z,1.27
2022-09-17T11:54:28.078Z,1.52
2022-09-17T11:57:35.255Z,1.67
2022-09-17T12:00:43.540Z,1.48
2022-09-17T12:03:53.434Z,1.35
2022-09-17T12:07:00.985Z,1.60
2022-09-17T12:10:12.354Z,1.50
2022-09-17T12:13:21.216Z,1.30
2022-09-17T12:16:28.641Z,1.70
2022-09-17T12:19:36.317Z,1.58
2022-09-17T12:22:43.012Z,1.65
2022-09-17T12:25:55.979Z,1.42
2022-09-17T12:29:05.022Z,1.60
2022-09-17T12:32:21.344Z,1.92
2022-09-17T12:35:59.844Z,1.60
2022-09-17T12:39:15.718Z,1.58
2022-09-17T12:42:27.847Z,1.38
2022-09-17T12:45:38.555Z,1.25
2022-09-17T12:48:48.471Z,1.30
2022-09-17T12:51:56.905Z,2.92
2022-09-17T12:58:15.103Z,2.40
2022-09-17T13:01:23.141Z,1.83
2022-09-17T13:04:57.216Z,1.65
2022-09-17T13:08:09.614Z,1.50
2022-09-17T13:11:22.873Z,1.20
2022-09-17T13:14:35.775Z,1.75
2022-09-17T13:17:52.412Z,1.75
2022-09-17T13:21:09.536Z,2.00
2022-09-17T13:24:18.182Z,1.95
2022-09-17T13:27:25.950Z,1.40
2022-09-17T13:30:53.472Z,2.03
2022-09-17T13:34:00.112Z,1.80
2022-09-17T13:37:05.906Z,2.17
2022-09-17T13:40:24.083Z,1.77
2022-09-17T13:43:29.678Z,2.20
2022-09-17T13:46:38.327Z,2.25
2022-09-17T13:49:47.667Z,1.67
2022-09-17T13:52:53.737Z,1.98
2022-09-17T13:56:01.414Z,1.90
2022-09-17T13:59:09.066Z,2.17
2022-09-17T14:02:35.469Z,3.47
2022-09-17T14:05:43.277Z,2.08
2022-09-17T14:08:52.169Z,2.35
2022-09-17T14:11:57.346Z,2.47
2022-09-17T14:15:02.691Z,2.13
2022-09-17T14:18:23.695Z,6.60
2022-09-17T14:21:33.136Z,2.33
2022-09-17T14:24:39.944Z,1.70
2022-09-17T14:27:51.181Z,1.80
2022-09-17T14:30:56.366Z,1.15
2022-09-17T14:34:01.837Z,1.40
2022-09-17T14:37:12.725Z,1.73
2022-09-17T14:40:20.263Z,1.70
2022-09-17T14:43:30.487Z,1.00
2022-09-17T14:46:36.842Z,1.15
2022-09-17T14:49:42.222Z,1.20
2022-09-17T14:52:54.003Z,1.73
2022-09-17T14:55:59.001Z,1.30
2022-09-17T14:59:04.483Z,1.45
2022-09-17T15:02:24.479Z,1.40
2022-09-17T15:05:32.190Z,3.13
2022-09-17T15:08:40.008Z,2.08
2022-09-17T15:11:46.149Z,2.00
2022-09-17T15:14:51.389Z,2.45
2022-09-17T15:17:57.601Z,2.60
2022-09-17T15:21:04.057Z,2.60
2022-09-17T15:24:22.258Z,3.15
2022-09-17T15:27:30.369Z,2.90
2022-09-17T15:30:35.457Z,3.20
2022-09-17T15:33:40.599Z,2.60
2022-09-17T15:37:06.204Z,2.70
2022-09-17T15:40:18.958Z,2.95
2022-09-17T15:43:27.680Z,2.60
2022-09-17T15:49:38.668Z,2.70
2022-09-17T15:52:43.766Z,2.75
2022-09-17T15:56:01.674Z,2.58
2022-09-17T15:59:08.084Z,2.40
2022-09-17T16:02:27.840Z,2.40
2022-09-17T16:05:55.606Z,2.70
2022-09-17T16:09:03.343Z,3.17
2022-09-17T16:12:11.978Z,3.55
2022-09-17T16:15:17.921Z,2.63
2022-09-17T16:18:22.888Z,2.50
2022-09-17T16:21:29.469Z,3.15
2022-09-17T16:24:34.697Z,3.20
2022-09-17T16:27:47.947Z,2.95
2022-09-17T16:30:53.457Z,3.50
2022-09-17T16:33:58.563Z,3.20
2022-09-17T16:37:03.849Z,3.60
2022-09-17T16:40:10.649Z,2.92
2022-09-17T16:43:18.650Z,2.97
2022-09-17T16:46:23.804Z,2.60
2022-09-17T16:49:28.934Z,3.30
2022-09-17T16:52:34.085Z,3.42
2022-09-17T16:55:39.055Z,2.97
2022-09-17T16:58:46.628Z,3.97
2022-09-17T17:01:52.120Z,3.83
2022-09-17T17:04:57.710Z,3.33
2022-09-17T17:08:06.633Z,3.70
2022-09-17T17:11:12.131Z,3.40
2022-09-17T17:14:19.826Z,3.70
2022-09-17T17:17:25.061Z,3.50
2022-09-17T17:20:31.075Z,3.72
2022-09-17T17:23:36.882Z,3.88
2022-09-17T17:26:41.936Z,3.25
2022-09-17T17:29:49.772Z,3.50
2022-09-17T17:32:55.709Z,3.00
2022-09-17T17:36:07.479Z,3.47
2022-09-17T17:39:13.590Z,3.78
2022-09-17T17:42:19.247Z,4.13
2022-09-17T17:45:27.008Z,4.13
2022-09-17T17:48:33.065Z,3.80
2022-09-17T17:51:38.550Z,3.55
2022-09-17T17:54:43.508Z,4.53
2022-09-17T17:57:48.727Z,3.72
2022-09-17T18:00:56.419Z,4.05
2022-09-17T18:04:01.993Z,4.07
2022-09-17T18:07:08.049Z,4.18
2022-09-17T18:10:13.521Z,3.90
2022-09-17T18:13:18.524Z,3.85
2022-09-17T18:16:26.826Z,3.72
2022-09-17T18:19:32.112Z,3.95
2022-09-17T18:22:37.285Z,4.18
2022-09-17T18:25:42.448Z,3.40
2022-09-17T18:28:47.728Z,3.90
2022-09-17T18:31:55.724Z,3.22
2022-09-17T18:35:00.940Z,3.40
2022-09-17T18:38:07.922Z,3.10
2022-09-17T18:41:14.502Z,12.93
2022-09-17T18:44:22.149Z,3.65
2022-09-17T18:47:29.828Z,3.72
2022-09-17T18:50:35.153Z,3.83
2022-09-17T18:53:40.980Z,3.65
2022-09-17T18:56:46.108Z,3.22
2022-09-17T18:59:51.220Z,4.10
2022-09-17T19:02:59.133Z,2.97
2022-09-17T19:06:04.609Z,3.70
2022-09-17T19:09:09.819Z,3.70
2022-09-17T19:12:14.777Z,3.35
2022-09-17T19:15:20.897Z,3.40
2022-09-17T19:18:28.465Z,4.38
2022-09-17T19:21:33.467Z,3.73
2022-09-17T19:24:38.951Z,3.38
2022-09-17T19:27:44.262Z,3.20
2022-09-17T19:30:49.626Z,3.85
2022-09-17T19:33:58.677Z,3.50
2022-09-17T19:37:04.201Z,3.17
2022-09-17T19:40:10.261Z,3.47
2022-09-17T19:43:15.446Z,3.75
2022-09-17T19:46:21.529Z,3.25
2022-09-17T19:49:29.306Z,3.72
2022-09-17T19:52:34.314Z,3.90
2022-09-17T19:55:40.985Z,3.13
2022-09-17T19:58:46.152Z,3.20
2022-09-17T20:01:51.535Z,3.15
2022-09-17T20:04:59.346Z,3.47
2022-09-17T20:08:04.519Z,3.77
2022-09-17T20:11:10.079Z,4.00
2022-09-17T20:14:15.824Z,3.63
2022-09-17T20:17:20.853Z,4.47
2022-09-17T20:20:29.036Z,3.75
2022-09-17T20:23:34.331Z,3.97
2022-09-17T20:26:39.444Z,4.18
2022-09-17T20:29:44.635Z,4.43
2022-09-17T20:32:49.725Z,4.35
2022-09-17T20:36:02.692Z,4.15
2022-09-17T20:39:16.478Z,4.68
2022-09-17T20:42:24.770Z,4.63
2022-09-17T20:45:29.909Z,4.72
2022-09-17T20:48:35.339Z,4.43
2022-09-17T20:51:43.129Z,4.35
2022-09-17T20:54:51.064Z,4.25
2022-09-17T20:57:57.248Z,4.57
2022-09-17T21:01:08.444Z,4.90
2022-09-17T21:04:14.169Z,5.00
2022-09-17T21:07:21.879Z,4.97
2022-09-17T21:10:27.037Z,5.20
2022-09-17T21:13:32.269Z,5.07
2022-09-17T21:16:37.375Z,5.40
2022-09-17T21:19:42.344Z,4.93
2022-09-17T21:22:50.058Z,5.03
2022-09-17T21:25:55.564Z,5.35
2022-09-17T21:29:00.690Z,5.10
2022-09-17T21:32:05.702Z,4.85
2022-09-17T21:35:11.113Z,4.95
2022-09-17T21:38:19.596Z,4.80
2022-09-17T21:41:25.246Z,5.40
2022-09-17T21:44:30.513Z,5.10
2022-09-17T21:47:35.629Z,5.32
2022-09-17T21:50:40.594Z,5.60
2022-09-17T21:53:48.754Z,5.20
2022-09-17T21:56:53.936Z,5.68
2022-09-17T21:59:59.235Z,5.15
2022-09-17T22:03:04.455Z,5.43
2022-09-17T22:06:10.191Z,5.95
2022-09-17T22:09:19.989Z,5.50
2022-09-17T22:12:25.055Z,5.45
2022-09-17T22:15:30.397Z,5.65
2022-09-17T22:18:36.276Z,6.10
2022-09-17T22:21:42.787Z,5.70
2022-09-17T22:24:50.595Z,5.85
2022-09-17T22:28:19.462Z,5.75
2022-09-17T22:31:21.551Z,5.57
2022-09-17T22:34:30.069Z,6.20
2022-09-17T22:37:35.112Z,5.93
2022-09-17T22:40:42.929Z,5.15
2022-09-17T22:43:47.872Z,5.43
2022-09-17T22:46:53.465Z,5.57
2022-09-17T22:49:58.617Z,5.70
2022-09-17T22:53:03.707Z,6.20
2022-09-17T22:56:12.580Z,5.43
2022-09-17T22:59:18.431Z,4.90
2022-09-17T23:02:23.740Z,5.47
2022-09-17T23:05:28.833Z,5.85
2022-09-17T23:08:34.279Z,5.82
2022-09-17T23:11:42.071Z,6.43
2022-09-17T23:14:47.416Z,5.47
2022-09-17T23:17:52.398Z,5.70
2022-09-17T23:21:00.967Z,5.47
2022-09-17T23:24:06.291Z,5.38
2022-09-17T23:27:14.043Z,6.65
2022-09-17T23:30:19.394Z,6.10
2022-09-17T23:33:24.726Z,5.82
2022-09-17T23:36:30.657Z,5.57
2022-09-17T23:39:35.717Z,6.30
2022-09-17T23:42:43.431Z,6.05
2022-09-17T23:45:48.527Z,6.00
2022-09-17T23:48:54.165Z,5.97
2022-09-17T23:51:59.249Z,6.47
2022-09-17T23:55:04.864Z,6.25
2022-09-17T23:58:12.575Z,6.03
